Tyler, TX

8:58 PM CDT on April 26, 2015 (GMT -0500)
Henderson | | Change Station
CLOSE
Current Station
Airport
Location: Henderson,
Elevation: 443 ft
Nearby Weather Stations
Active Advisory: Flood Warning Active Notice: Public Information Statement

Elev 443 ft 32.14 °N, 94.85 °W | Updated 23 minutes ago

Partly Cloudy
Partly Cloudy
73 °F
Feels Like 73 °F
N
4
Wind Variable Wind from SE

Today
High -- | Low -- °F
--% Chance of Precip.
Yesterday
High -- | Low -- °F
Precip. -- in
6:39 AM 7:58 PM
First Quarter, 60% visible
Pressure 29.68 in
Visibility 10.0 miles
Clouds Clear
Dew Point 66 °F
Humidity 76%
Rainfall 0.00 in
Snow Depth Not available.
UV 0 out of 12
Pollen 9.10 out of 12
Air Quality Not available.
Flu Activity Local Activity
METAR KRFI 270135Z AUTO 14003KT 10SM CLR 23/19 A2968 RMK AO2 T02300186

More Conditions Fewer Conditions

Pressure 29.68 in
Visibility 10.0 miles
Clouds Clear
Dew Point 66 °F
Humidity 76%
Rainfall 0.00 in
Snow Depth Not available.
UV 0 out of 12
Pollen 9.10 out of 12
Air Quality Not available.
Flu Activity Local Activity
METAR KRFI 270135Z AUTO 14003KT 10SM CLR 23/19 A2968 RMK AO2 T02300186

More Conditions Fewer Conditions

The full scope of the disaster following a powerful 7.8-magnitude earthquake in Nepal may not come into view for days, but global charities are already sending emergency aid. Click to see how you can help.

10-Day Weather Forecast

Almanac

Astronomy

Apr. 26, 2015 Rise Set
Actual Time
Civil Twilight
Nautical Twilight
Astronomical Twilight
Moon
Length of Visible Light
Length of Day
Tomorrow will be .
, % of the Moon is Illuminated

Today's Extremes

State Highs State Lows

Community

WunderPhotos

Upload Photos

1,817,202 photos uploaded!

WunderBlogs® & News

Nearby

Air Quality

  Air Quality AQ Index Pollutant
Not available.

Snow Depth

Station Depth Elevation

Earthquake Activity

City Distance Mag. Time & Date
Minimum magnitude displayed is 2.5.

Coastal Water Temperatures

Place Temperature

Stations

Nearby Weather Stations

Station Location Temp. Windchill Dew Point Humidity Wind Precip. Elev Updated Type
                   
Flood Warning
Statement as of 9:05 AM CDT on April 26, 2015

The Flood Warning continues for
the Sabine River near Mineola.
* Until Wednesday morning... or until the warning is cancelled.
* At 8:15 am Sunday the stage was 14.0 feet.
* Minor flooding is forecast.
* Flood stage is 14.0 feet.
* Forecast... rise above flood stage by late this morning and continue
to rise to near 14.8 feet by tomorrow morning. The river will fall
below flood stage by Tuesday early afternoon.
* Impact... at 14.0 feet... expect flooding of secondary roadways with
picnic and recreational areas flooded as well.


Lat... Lon 3278 9574 3263 9535 3257 9535 3259 9550 3273 9574